Terminal Aerodrome Forecast
Issued by NWS

Home | Current Version | Previous Version | Text Only | Print | Product List | Glossary On
Versions: 1 2 3 4 5 6 7 8 9 10 11 12 13 14 15 16 17 18 19 20 21
000
FTUS44 KHGX 280315 AAA
TAFCXO
TAF AMD
KCXO 280315Z 2803/2824 16008KT P6SM BKN250
      TEMPO 2803/2807 OVC012
     FM280700 17009KT P6SM OVC012
     FM281500 19010KT P6SM BKN025
     FM281700 18010KT P6SM SCT035=

USA.gov is the U.S. government's official web portal to all federal, state and local government web resources and services.